Sheerness, United Kingdom
Current Conditions -  °F | °C
As of 2:20 PM on Thursday 27 Nov 2014 (Local Time) from EGMC Reporting Station
Few Clouds Few Clouds  
Wind Chill: 52°   Ceiling: Unl
Heat Index: 52°   Visibility: 6mi
Dew Point: 48°   Wind: 3mph
Humidity: 88%   Direction: NA
Pressure: 29.59"   Gusts: NA
Location:  51.44°N, 0.76°E
Report Text: EGMC 271420Z VRB03KT 9999 FEW009 11/09 Q1002
Loading
Personal Weather Stations






























Interactive Weather Map New forecast layout! Learn more

10-Day Weather Forecast

Advertisements
Track Severe Weather on mobile